Terminal Aerodrome Forecast
Issued by NWS

Home | Current Version | Previous Version | Text Only | Print | Product List | Glossary On
Versions: 1 2 3 4 5 6 7 8 9 10 11 12 13 14 15 16 17 18 19 20 21 22 23 24 25
345
FTUS41 KBUF 300538
TAFIAG
TAF
KIAG 300538Z 3006/0106 04007KT P6SM BKN200
     FM301000 08014KT 6SM -SHRA VCTS SCT035 OVC060CB
     FM301500 08014G20KT P6SM BKN040
     FM302300 07008KT P6SM VCSH BKN040
     FM010300 VRB03KT P6SM BKN060 WS020/20040KT=

USA.gov is the U.S. government's official web portal to all federal, state and local government web resources and services.